createdAt,value
2022-10-18T00:01:23.205Z,101254.84
2022-10-18T00:04:27.097Z,101259.31
2022-10-18T00:07:31.447Z,101264.03
2022-10-18T00:10:35.774Z,101250.94
2022-10-18T00:13:40.089Z,101257.81
2022-10-18T00:16:44.471Z,101257.16
2022-10-18T00:19:50.426Z,101259.13
2022-10-18T00:22:54.205Z,101265.19
2022-10-18T00:26:04.121Z,101268.72
2022-10-18T00:29:12.909Z,101267.91
2022-10-18T00:32:16.750Z,101266.53
2022-10-18T00:35:20.700Z,101273.72
2022-10-18T00:38:24.727Z,101282.53
2022-10-18T00:41:31.307Z,101280.72
2022-10-18T00:44:34.959Z,101288.53
2022-10-18T00:47:39.231Z,101294.97
2022-10-18T00:50:43.642Z,101288.56
2022-10-18T00:53:48.491Z,101283.63
2022-10-18T00:56:52.546Z,101282.81
2022-10-18T00:59:56.768Z,101292.13
2022-10-18T01:03:00.580Z,101281.88
2022-10-18T01:06:04.719Z,101295.44
2022-10-18T01:09:28.490Z,101294.69
2022-10-18T01:12:45.214Z,101299.16
2022-10-18T01:16:02.814Z,101302.38
2022-10-18T01:19:39.169Z,101292.53
2022-10-18T01:22:59.681Z,101297.34
2022-10-18T01:26:23.260Z,101299.28
2022-10-18T01:29:53.743Z,101295.56
2022-10-18T01:33:23.979Z,101303.88
2022-10-18T01:36:35.774Z,101307.41
2022-10-18T01:39:44.966Z,101299.59
2022-10-18T01:42:50.126Z,101292.28
2022-10-18T01:45:55.213Z,101291.31
2022-10-18T01:48:59.566Z,101297.25
2022-10-18T01:52:03.815Z,101298.63
2022-10-18T01:55:08.131Z,101295.91
2022-10-18T01:58:27.200Z,101296.19
2022-10-18T02:01:36.891Z,101293.28
2022-10-18T02:05:06.340Z,101298.06
2022-10-18T02:08:23.989Z,101292.75
2022-10-18T02:11:31.236Z,101296.78
2022-10-18T02:14:35.775Z,101295.59
2022-10-18T02:17:40.908Z,101296.41
2022-10-18T02:20:45.653Z,101294.03
2022-10-18T02:23:50.084Z,101297.34
2022-10-18T02:26:53.789Z,101289.69
2022-10-18T02:29:58.661Z,101303.66
2022-10-18T02:33:11.193Z,101298.38
2022-10-18T02:36:22.146Z,101303.13
2022-10-18T02:39:30.514Z,101299.13
2022-10-18T02:42:39.826Z,101300.72
2022-10-18T02:45:44.187Z,101303.47
2022-10-18T02:48:47.971Z,101319.97
2022-10-18T02:51:51.597Z,101309.75
2022-10-18T02:54:55.285Z,101301.09
2022-10-18T02:57:59.049Z,101302.47
2022-10-18T03:01:02.884Z,101303.28
2022-10-18T03:04:06.988Z,101304.75
2022-10-18T03:07:10.882Z,101311.25
2022-10-18T03:10:14.946Z,101312.69
2022-10-18T03:13:19.087Z,101310.81
2022-10-18T03:16:23.169Z,101312.44
2022-10-18T03:19:27.273Z,101309.88
2022-10-18T03:22:31.579Z,101314.00
2022-10-18T03:25:35.314Z,101313.81
2022-10-18T03:28:39.059Z,101314.00
2022-10-18T03:31:43.272Z,101315.41
2022-10-18T03:34:47.425Z,101311.25
2022-10-18T03:37:51.355Z,101322.91
2022-10-18T03:40:55.346Z,101319.75
2022-10-18T03:43:59.326Z,101318.94
2022-10-18T03:47:03.433Z,101310.81
2022-10-18T03:50:07.600Z,101314.00
2022-10-18T03:53:11.691Z,101310.66
2022-10-18T03:56:15.940Z,101319.28
2022-10-18T03:59:19.911Z,101307.88
2022-10-18T04:02:24.438Z,101320.19
2022-10-18T04:05:30.781Z,101312.31
2022-10-18T04:08:35.007Z,101318.91
2022-10-18T04:11:38.997Z,101311.22
2022-10-18T04:14:42.712Z,101297.16
2022-10-18T04:17:46.961Z,101297.66
2022-10-18T04:20:50.954Z,101302.75
2022-10-18T04:23:54.904Z,101310.28
2022-10-18T04:26:58.690Z,101308.81
2022-10-18T04:30:02.705Z,101307.84
2022-10-18T04:33:06.420Z,101309.09
2022-10-18T04:36:10.244Z,101297.88
2022-10-18T04:39:14.292Z,101297.88
2022-10-18T04:42:18.339Z,101295.94
2022-10-18T04:45:22.120Z,101302.19
2022-10-18T04:48:26.392Z,101306.53
2022-10-18T04:51:30.703Z,101307.16
2022-10-18T04:54:34.952Z,101304.75
2022-10-18T04:57:38.776Z,101302.19
2022-10-18T05:00:43.436Z,101299.47
2022-10-18T05:03:52.295Z,101298.34
2022-10-18T05:06:56.327Z,101293.22
2022-10-18T05:10:00.172Z,101286.94
2022-10-18T05:13:03.878Z,101285.34
2022-10-18T05:16:07.918Z,101270.16
2022-10-18T05:19:11.655Z,101266.78
2022-10-18T05:22:15.763Z,101271.91
2022-10-18T05:25:19.579Z,101269.34
2022-10-18T05:28:41.063Z,101261.66
2022-10-18T05:31:45.455Z,101263.91
2022-10-18T05:34:49.257Z,101258.94
2022-10-18T05:37:53.555Z,101259.91
2022-10-18T05:40:57.715Z,101255.94
2022-10-18T05:44:05.718Z,101256.53
2022-10-18T05:47:09.540Z,101255.69
2022-10-18T05:50:14.498Z,101247.25
2022-10-18T05:53:35.812Z,101250.63
2022-10-18T05:56:41.387Z,101241.31
2022-10-18T05:59:45.332Z,101246.44
2022-10-18T06:02:49.351Z,101244.88
2022-10-18T06:05:54.212Z,101240.88
2022-10-18T06:08:58.592Z,101237.38
2022-10-18T06:12:02.688Z,101240.81
2022-10-18T06:15:07.316Z,101241.09
2022-10-18T06:18:11.080Z,101240.31
2022-10-18T06:21:16.463Z,101241.25
2022-10-18T06:24:21.758Z,101242.25
2022-10-18T06:27:25.603Z,101244.63
2022-10-18T06:30:29.497Z,101252.94
2022-10-18T06:33:35.197Z,101254.69
2022-10-18T06:36:39.031Z,101251.78
2022-10-18T06:39:42.863Z,101239.78
2022-10-18T06:42:55.279Z,101227.75
2022-10-18T06:46:10.232Z,101226.28
2022-10-18T06:49:18.325Z,101217.88
2022-10-18T06:52:25.620Z,101215.69
2022-10-18T06:55:30.714Z,101221.94
2022-10-18T06:58:35.461Z,101220.69
2022-10-18T07:01:39.874Z,101220.34
2022-10-18T07:04:44.054Z,101215.41
2022-10-18T07:07:50.626Z,101223.91
2022-10-18T07:10:55.587Z,101216.38
2022-10-18T07:14:03.023Z,101225.47
2022-10-18T07:17:07.700Z,101230.56
2022-10-18T07:20:12.291Z,101224.03
2022-10-18T07:23:15.915Z,101220.66
2022-10-18T07:26:27.077Z,101220.84
2022-10-18T07:29:31.621Z,101223.22
2022-10-18T07:32:35.363Z,101233.63
2022-10-18T07:35:39.421Z,101241.03
2022-10-18T07:38:44.603Z,101248.41
2022-10-18T07:41:48.614Z,101245.50
2022-10-18T07:44:52.475Z,101250.16
2022-10-18T07:47:56.855Z,101247.44
2022-10-18T07:51:01.409Z,101241.56
2022-10-18T07:54:05.597Z,101250.81
2022-10-18T07:57:09.964Z,101256.41
2022-10-18T08:00:14.349Z,101271.78
2022-10-18T08:03:19.049Z,101271.63
2022-10-18T08:06:23.772Z,101282.66
2022-10-18T08:09:28.247Z,101290.63
2022-10-18T08:12:32.933Z,101283.31
2022-10-18T08:15:36.686Z,101269.09
2022-10-18T08:18:41.466Z,101269.69
2022-10-18T08:21:45.313Z,101270.97
2022-10-18T08:24:49.715Z,101268.25
2022-10-18T08:27:53.642Z,101271.63
2022-10-18T08:31:01.992Z,101270.66
2022-10-18T08:34:05.971Z,101278.00
2022-10-18T08:37:10.120Z,101278.44
2022-10-18T08:40:14.793Z,101278.94
2022-10-18T08:43:37.466Z,101284.22
2022-10-18T08:46:46.064Z,101269.88
2022-10-18T08:49:57.933Z,101275.00
2022-10-18T08:53:13.892Z,101284.94
2022-10-18T08:56:24.139Z,101291.50
2022-10-18T08:59:40.583Z,101295.84
2022-10-18T09:02:59.035Z,101314.50
2022-10-18T09:06:17.677Z,101304.00
2022-10-18T09:09:35.453Z,101296.19
2022-10-18T09:12:54.936Z,101303.34
2022-10-18T09:16:02.463Z,101305.75
2022-10-18T09:19:37.312Z,101305.56
2022-10-18T09:23:01.969Z,101302.00
2022-10-18T09:26:17.286Z,101286.31
2022-10-18T09:29:40.853Z,101278.66
2022-10-18T09:32:49.787Z,101272.94
2022-10-18T09:36:00.342Z,101257.25
2022-10-18T09:39:08.790Z,101259.94
2022-10-18T09:42:34.946Z,101267.28
2022-10-18T09:45:45.505Z,101276.38
2022-10-18T09:48:55.999Z,101277.78
2022-10-18T09:52:08.914Z,101288.19
2022-10-18T09:55:15.786Z,101294.56
2022-10-18T09:58:22.742Z,101306.63
2022-10-18T10:01:30.357Z,101310.22
2022-10-18T10:04:34.253Z,101318.81
2022-10-18T10:07:44.465Z,101326.34
2022-10-18T10:10:48.589Z,101325.69
2022-10-18T10:13:57.505Z,101328.25
2022-10-18T10:17:05.763Z,101330.81
2022-10-18T10:20:21.200Z,101326.28
2022-10-18T10:23:26.509Z,101321.59
2022-10-18T10:26:34.792Z,101317.28
2022-10-18T10:29:49.543Z,101323.84
2022-10-18T10:32:54.829Z,101319.97
2022-10-18T10:36:00.682Z,101312.44
2022-10-18T10:39:04.590Z,101312.97
2022-10-18T10:42:13.365Z,101317.13
2022-10-18T10:45:17.654Z,101316.34
2022-10-18T10:48:22.547Z,101326.38
2022-10-18T10:51:33.356Z,101333.91
2022-10-18T10:54:39.839Z,101331.69
2022-10-18T10:57:47.152Z,101330.19
2022-10-18T11:00:51.276Z,101337.19
2022-10-18T11:03:58.454Z,101333.94
2022-10-18T11:07:27.385Z,101327.31
2022-10-18T11:10:38.344Z,101323.94
2022-10-18T11:13:53.422Z,101315.72
2022-10-18T11:17:16.320Z,101318.81
2022-10-18T11:20:43.135Z,101325.34
2022-10-18T11:23:47.279Z,101331.75
2022-10-18T11:27:02.644Z,101337.72
2022-10-18T11:30:37.613Z,101345.88
2022-10-18T11:34:15.396Z,101344.19
2022-10-18T11:37:44.831Z,101340.38
2022-10-18T11:40:54.939Z,101336.22
2022-10-18T11:44:04.413Z,101343.38
2022-10-18T11:47:43.827Z,101344.03
2022-10-18T11:51:04.322Z,101359.50
2022-10-18T11:54:11.421Z,101368.38
2022-10-18T11:57:31.561Z,101361.38
2022-10-18T12:00:50.861Z,101363.81
2022-10-18T12:04:14.043Z,101353.28
2022-10-18T12:07:26.817Z,101358.13
2022-10-18T12:10:45.806Z,101349.50
2022-10-18T12:14:02.022Z,101346.00
2022-10-18T12:17:41.695Z,101351.63
2022-10-18T12:20:49.564Z,101350.06
2022-10-18T12:23:54.024Z,101352.28
2022-10-18T12:27:01.896Z,101352.75
2022-10-18T12:30:24.340Z,101346.28
2022-10-18T12:33:34.211Z,101343.25
2022-10-18T12:40:20.509Z,101342.09
2022-10-18T12:43:32.445Z,101336.69
2022-10-18T12:46:43.946Z,101336.69
2022-10-18T12:49:57.695Z,101334.06
2022-10-18T12:53:29.658Z,101328.25
2022-10-18T12:56:42.493Z,101329.34
2022-10-18T12:59:46.657Z,101335.16
2022-10-18T13:03:13.105Z,101339.09
2022-10-18T13:06:17.002Z,101340.00
2022-10-18T13:09:21.779Z,101330.28
2022-10-18T13:12:28.775Z,101320.94
2022-10-18T13:15:42.991Z,101318.44
2022-10-18T13:18:57.162Z,101324.81
2022-10-18T13:22:37.907Z,101324.81
2022-10-18T13:26:01.764Z,101321.09
2022-10-18T13:29:30.092Z,101326.28
2022-10-18T13:32:58.137Z,101323.31
2022-10-18T13:36:06.429Z,101330.91
2022-10-18T13:39:20.027Z,101330.63
2022-10-18T13:42:33.052Z,101338.31
2022-10-18T13:45:44.041Z,101332.59
2022-10-18T13:49:20.071Z,101338.94
2022-10-18T13:52:27.291Z,101352.97
2022-10-18T13:56:10.052Z,101350.25
2022-10-18T13:59:44.088Z,101356.44
2022-10-18T14:03:37.594Z,101357.50
2022-10-18T14:06:43.481Z,101362.63
2022-10-18T14:09:57.591Z,101367.06
2022-10-18T14:13:04.206Z,101367.00
2022-10-18T14:16:34.829Z,101363.53
2022-10-18T14:19:42.421Z,101368.03
2022-10-18T14:23:16.252Z,101379.00
2022-10-18T14:26:20.796Z,101371.84
2022-10-18T14:29:24.968Z,101370.94
2022-10-18T14:32:31.687Z,101371.63
2022-10-18T14:35:35.696Z,101367.22
2022-10-18T14:38:57.321Z,101366.94
2022-10-18T14:42:02.255Z,101367.22
2022-10-18T14:45:19.456Z,101362.19
2022-10-18T14:48:23.927Z,101368.63
2022-10-18T14:51:32.859Z,101363.38
2022-10-18T14:54:38.064Z,101366.72
2022-10-18T14:57:42.067Z,101372.31
2022-10-18T15:00:48.551Z,101366.19
2022-10-18T15:03:59.618Z,101370.38
2022-10-18T15:07:06.400Z,101365.56
2022-10-18T15:10:18.843Z,101358.22
2022-10-18T15:13:25.016Z,101365.66
2022-10-18T15:16:31.889Z,101366.97
2022-10-18T15:19:42.946Z,101355.31
2022-10-18T15:22:47.628Z,101363.16
2022-10-18T15:25:59.496Z,101364.75
2022-10-18T15:29:06.205Z,101364.91
2022-10-18T15:32:31.899Z,101359.16
2022-10-18T15:35:38.432Z,101356.59
2022-10-18T15:38:46.222Z,101360.16
2022-10-18T15:42:02.739Z,101354.22
2022-10-18T15:45:25.035Z,101364.78
2022-10-18T15:48:40.325Z,101350.16
2022-10-18T15:51:49.394Z,101354.44
2022-10-18T15:54:53.409Z,101355.59
2022-10-18T15:58:15.927Z,101349.38
2022-10-18T16:01:22.490Z,101354.03
2022-10-18T16:04:32.353Z,101356.19
2022-10-18T16:07:36.263Z,101353.13
2022-10-18T16:10:40.106Z,101353.31
2022-10-18T16:13:44.436Z,101365.03
2022-10-18T16:16:52.624Z,101359.31
2022-10-18T16:19:56.605Z,101368.63
2022-10-18T16:23:00.495Z,101363.38
2022-10-18T16:26:05.057Z,101380.38
2022-10-18T16:29:15.776Z,101381.50
2022-10-18T16:32:19.608Z,101380.25
2022-10-18T16:35:23.543Z,101384.72
2022-10-18T16:38:35.206Z,101396.88
2022-10-18T16:41:39.504Z,101402.31
2022-10-18T16:44:43.283Z,101390.66
2022-10-18T16:47:47.420Z,101400.72
2022-10-18T16:50:53.602Z,101399.59
2022-10-18T16:53:58.126Z,101411.56
2022-10-18T16:57:02.529Z,101402.97
2022-10-18T17:00:07.032Z,101391.78
2022-10-18T17:03:11.043Z,101402.97
2022-10-18T17:06:17.603Z,101390.81
2022-10-18T17:09:21.478Z,101389.88
2022-10-18T17:12:25.523Z,101400.59
2022-10-18T17:15:32.873Z,101397.59
2022-10-18T17:18:39.055Z,101419.31
2022-10-18T17:21:42.820Z,101413.59
2022-10-18T17:24:46.987Z,101421.88
2022-10-18T17:27:50.950Z,101421.56
2022-10-18T17:30:54.779Z,101418.69
2022-10-18T17:34:01.336Z,101426.03
2022-10-18T17:37:05.890Z,101427.28
2022-10-18T17:40:10.222Z,101414.16
2022-10-18T17:43:14.432Z,101426.63
2022-10-18T17:46:19.574Z,101426.63
2022-10-18T17:49:23.608Z,101425.53
2022-10-18T17:52:27.900Z,101420.56
2022-10-18T17:55:34.214Z,101420.88
2022-10-18T17:58:38.282Z,101426.03
2022-10-18T18:01:44.217Z,101423.97
2022-10-18T18:04:48.521Z,101423.16
2022-10-18T18:07:52.990Z,101427.47
2022-10-18T18:10:56.786Z,101420.75
2022-10-18T18:14:00.791Z,101429.53
2022-10-18T18:17:05.071Z,101423.34
2022-10-18T18:20:09.780Z,101421.28
2022-10-18T18:23:14.445Z,101418.06
2022-10-18T18:26:19.459Z,101417.25
2022-10-18T18:29:25.094Z,101423.50
2022-10-18T18:32:31.059Z,101421.13
2022-10-18T18:35:35.807Z,101421.28
2022-10-18T18:38:45.117Z,101419.38
2022-10-18T18:41:51.381Z,101434.38
2022-10-18T18:44:55.345Z,101424.19
2022-10-18T18:48:01.949Z,101423.81
2022-10-18T18:51:11.106Z,101422.53
2022-10-18T18:54:15.962Z,101423.19
2022-10-18T18:57:20.070Z,101430.38
2022-10-18T19:00:24.273Z,101429.09
2022-10-18T19:03:28.447Z,101434.03
2022-10-18T19:06:47.389Z,101424.47
2022-10-18T19:09:52.075Z,101436.75
2022-10-18T19:12:56.676Z,101433.88
2022-10-18T19:16:34.319Z,101434.97
2022-10-18T19:19:40.735Z,101439.47
2022-10-18T19:22:45.590Z,101446.78
2022-10-18T19:25:49.420Z,101441.97
2022-10-18T19:28:53.675Z,101447.41
2022-10-18T19:32:00.256Z,101446.75
2022-10-18T19:35:04.250Z,101443.22
2022-10-18T19:38:08.135Z,101439.88
2022-10-18T19:41:12.373Z,101451.50
2022-10-18T19:44:18.535Z,101457.09
2022-10-18T19:47:22.666Z,101453.88
2022-10-18T19:53:35.796Z,101453.13
2022-10-18T19:56:43.251Z,101454.66
2022-10-18T19:59:47.130Z,101458.19
2022-10-18T20:02:50.825Z,101456.88
2022-10-18T20:05:58.964Z,101461.69
2022-10-18T20:09:04.397Z,101452.25
2022-10-18T20:12:08.248Z,101462.94
2022-10-18T20:15:12.711Z,101468.50
2022-10-18T20:18:18.583Z,101464.00
2022-10-18T20:21:22.302Z,101461.88
2022-10-18T20:24:26.350Z,101463.16
2022-10-18T20:27:31.894Z,101471.47
2022-10-18T20:30:36.549Z,101466.66
2022-10-18T20:33:41.189Z,101465.69
2022-10-18T20:36:45.393Z,101470.16
2022-10-18T20:39:49.608Z,101468.72
2022-10-18T20:42:53.865Z,101468.84
2022-10-18T20:45:59.089Z,101470.31
2022-10-18T20:49:05.158Z,101471.13
2022-10-18T20:52:09.132Z,101474.63
2022-10-18T20:55:13.266Z,101480.97
2022-10-18T20:58:17.307Z,101468.50
2022-10-18T21:01:24.214Z,101475.34
2022-10-18T21:04:28.281Z,101484.78
2022-10-18T21:07:32.426Z,101486.69
2022-10-18T21:10:36.712Z,101486.31
2022-10-18T21:13:43.485Z,101493.31
2022-10-18T21:16:48.455Z,101485.31
2022-10-18T21:19:53.567Z,101490.69
2022-10-18T21:22:57.578Z,101496.13
2022-10-18T21:26:01.569Z,101500.84
2022-10-18T21:29:06.143Z,101511.34
2022-10-18T21:32:10.287Z,101511.81
2022-10-18T21:35:14.140Z,101519.09
2022-10-18T21:38:18.309Z,101526.88
2022-10-18T21:41:22.572Z,101509.97
2022-10-18T21:44:26.740Z,101507.72
2022-10-18T21:47:31.054Z,101494.13
2022-10-18T21:50:35.077Z,101506.31
2022-10-18T21:53:38.949Z,101502.63
2022-10-18T21:56:43.625Z,101505.34
2022-10-18T21:59:47.279Z,101497.63
2022-10-18T22:03:08.415Z,101490.19
2022-10-18T22:06:15.193Z,101495.56
2022-10-18T22:09:21.177Z,101487.84
2022-10-18T22:12:25.128Z,101485.84
2022-10-18T22:15:29.183Z,101486.81
2022-10-18T22:18:33.921Z,101482.28
2022-10-18T22:21:37.844Z,101480.31
2022-10-18T22:24:41.734Z,101473.91
2022-10-18T22:27:45.602Z,101478.50
2022-10-18T22:30:49.837Z,101469.97
2022-10-18T22:33:55.923Z,101485.00
2022-10-18T22:36:59.931Z,101481.53
2022-10-18T22:40:04.265Z,101481.53
2022-10-18T22:43:08.096Z,101474.84
2022-10-18T22:46:13.254Z,101483.28
2022-10-18T22:49:17.103Z,101473.41
2022-10-18T22:52:21.268Z,101473.28
2022-10-18T22:55:25.297Z,101468.63
2022-10-18T22:58:31.618Z,101466.78
2022-10-18T23:01:37.785Z,101478.81
2022-10-18T23:04:41.925Z,101468.28
2022-10-18T23:07:49.398Z,101473.88
2022-10-18T23:10:55.570Z,101473.34
2022-10-18T23:13:59.576Z,101475.38
2022-10-18T23:17:03.626Z,101478.31
2022-10-18T23:20:07.988Z,101479.00
2022-10-18T23:23:13.004Z,101482.78
2022-10-18T23:26:20.300Z,101485.09
2022-10-18T23:29:24.544Z,101490.44
2022-10-18T23:32:28.729Z,101488.53
2022-10-18T23:35:32.633Z,101489.09
2022-10-18T23:38:38.443Z,101492.72
2022-10-18T23:41:43.884Z,101484.56
2022-10-18T23:44:48.191Z,101492.06
2022-10-18T23:47:51.998Z,101481.72
2022-10-18T23:50:56.259Z,101482.72
2022-10-18T23:54:02.573Z,101494.84
2022-10-18T23:57:06.588Z,101491.78
